sensor_id;sensor_type;location;lat;lon;timestamp;temperature;humidity
71082;SHT31;58740;50.672;18.690;2022-09-20T00:01:34;11.23;82.19
71082;SHT31;58740;50.672;18.690;2022-09-20T00:04:02;11.22;82.18
71082;SHT31;58740;50.672;18.690;2022-09-20T00:06:33;11.22;82.19
71082;SHT31;58740;50.672;18.690;2022-09-20T00:09:02;11.23;82.16
71082;SHT31;58740;50.672;18.690;2022-09-20T00:11:31;11.24;82.14
71082;SHT31;58740;50.672;18.690;2022-09-20T00:14:05;11.23;82.05
71082;SHT31;58740;50.672;18.690;2022-09-20T00:16:35;11.20;82.09
71082;SHT31;58740;50.672;18.690;2022-09-20T00:19:07;11.20;82.02
71082;SHT31;58740;50.672;18.690;2022-09-20T00:21:44;11.19;82.08
71082;SHT31;58740;50.672;18.690;2022-09-20T00:24:11;11.17;82.06
71082;SHT31;58740;50.672;18.690;2022-09-20T00:26:40;11.18;82.10
71082;SHT31;58740;50.672;18.690;2022-09-20T00:29:07;11.20;82.06
71082;SHT31;58740;50.672;18.690;2022-09-20T00:31:35;11.19;82.02
71082;SHT31;58740;50.672;18.690;2022-09-20T00:34:05;11.19;82.09
71082;SHT31;58740;50.672;18.690;2022-09-20T00:36:51;11.18;82.12
71082;SHT31;58740;50.672;18.690;2022-09-20T00:39:19;11.17;82.16
71082;SHT31;58740;50.672;18.690;2022-09-20T00:41:47;11.18;82.10
71082;SHT31;58740;50.672;18.690;2022-09-20T00:58:31;11.18;82.10
71082;SHT31;58740;50.672;18.690;2022-09-20T01:01:05;11.21;82.12
71082;SHT31;58740;50.672;18.690;2022-09-20T01:03:34;11.23;82.03
71082;SHT31;58740;50.672;18.690;2022-09-20T01:06:06;11.23;81.92
71082;SHT31;58740;50.672;18.690;2022-09-20T01:08:39;11.24;81.89
71082;SHT31;58740;50.672;18.690;2022-09-20T01:11:15;11.22;81.97
71082;SHT31;58740;50.672;18.690;2022-09-20T01:13:43;11.22;82.00
71082;SHT31;58740;50.672;18.690;2022-09-20T01:16:10;11.23;82.00
71082;SHT31;58740;50.672;18.690;2022-09-20T01:18:42;11.24;82.09
71082;SHT31;58740;50.672;18.690;2022-09-20T01:21:11;11.25;82.01
71082;SHT31;58740;50.672;18.690;2022-09-20T01:24:02;11.26;81.92
71082;SHT31;58740;50.672;18.690;2022-09-20T01:30:02;11.26;81.97
71082;SHT31;58740;50.672;18.690;2022-09-20T01:32:43;11.27;81.96
71082;SHT31;58740;50.672;18.690;2022-09-20T01:35:16;11.28;81.94
71082;SHT31;58740;50.672;18.690;2022-09-20T01:37:58;11.29;81.89
71082;SHT31;58740;50.672;18.690;2022-09-20T01:46:42;11.27;81.99
71082;SHT31;58740;50.672;18.690;2022-09-20T01:49:26;11.27;81.89
71082;SHT31;58740;50.672;18.690;2022-09-20T01:52:39;11.29;81.90
71082;SHT31;58740;50.672;18.690;2022-09-20T02:04:20;11.21;82.11
71082;SHT31;58740;50.672;18.690;2022-09-20T02:13:31;11.21;82.10
71082;SHT31;58740;50.672;18.690;2022-09-20T02:22:43;11.21;82.12
71082;SHT31;58740;50.672;18.690;2022-09-20T02:25:59;11.18;82.15
71082;SHT31;58740;50.672;18.690;2022-09-20T02:34:25;11.18;82.08
71082;SHT31;58740;50.672;18.690;2022-09-20T02:40:32;11.12;82.20
71082;SHT31;58740;50.672;18.690;2022-09-20T02:46:17;11.13;82.17
71082;SHT31;58740;50.672;18.690;2022-09-20T02:49:16;11.13;82.15
71082;SHT31;58740;50.672;18.690;2022-09-20T02:55:17;11.15;82.10
71082;SHT31;58740;50.672;18.690;2022-09-20T02:58:07;11.15;82.02
71082;SHT31;58740;50.672;18.690;2022-09-20T03:04:27;11.15;81.99
71082;SHT31;58740;50.672;18.690;2022-09-20T03:10:09;11.14;82.10
71082;SHT31;58740;50.672;18.690;2022-09-20T03:19:01;11.10;82.03
71082;SHT31;58740;50.672;18.690;2022-09-20T03:31:34;11.06;81.85
71082;SHT31;58740;50.672;18.690;2022-09-20T03:34:43;11.04;81.95
71082;SHT31;58740;50.672;18.690;2022-09-20T03:46:13;11.04;81.81
71082;SHT31;58740;50.672;18.690;2022-09-20T03:48:51;11.06;81.77
71082;SHT31;58740;50.672;18.690;2022-09-20T04:06:54;11.10;81.79
71082;SHT31;58740;50.672;18.690;2022-09-20T04:22:00;11.10;81.70
71082;SHT31;58740;50.672;18.690;2022-09-20T04:27:11;11.10;81.71
71082;SHT31;58740;50.672;18.690;2022-09-20T04:30:17;11.08;81.73
71082;SHT31;58740;50.672;18.690;2022-09-20T04:32:53;11.05;81.80
71082;SHT31;58740;50.672;18.690;2022-09-20T04:35:42;11.05;81.76
71082;SHT31;58740;50.672;18.690;2022-09-20T04:38:47;11.08;81.73
71082;SHT31;58740;50.672;18.690;2022-09-20T04:50:56;11.04;81.69
71082;SHT31;58740;50.672;18.690;2022-09-20T04:53:45;11.03;81.70
71082;SHT31;58740;50.672;18.690;2022-09-20T04:56:40;11.03;81.75
71082;SHT31;58740;50.672;18.690;2022-09-20T05:14:35;11.03;81.72
71082;SHT31;58740;50.672;18.690;2022-09-20T05:17:43;11.02;81.65
71082;SHT31;58740;50.672;18.690;2022-09-20T05:29:35;11.00;81.68
71082;SHT31;58740;50.672;18.690;2022-09-20T05:32:26;11.03;81.75
71082;SHT31;58740;50.672;18.690;2022-09-20T05:47:55;11.00;81.39
71082;SHT31;58740;50.672;18.690;2022-09-20T05:53:49;11.01;81.39
71082;SHT31;58740;50.672;18.690;2022-09-20T05:56:52;10.99;81.38
71082;SHT31;58740;50.672;18.690;2022-09-20T05:59:43;11.00;81.48
71082;SHT31;58740;50.672;18.690;2022-09-20T06:02:43;11.00;81.59
71082;SHT31;58740;50.672;18.690;2022-09-20T06:08:37;11.04;81.59
71082;SHT31;58740;50.672;18.690;2022-09-20T06:17:27;11.03;81.68
71082;SHT31;58740;50.672;18.690;2022-09-20T06:22:55;11.05;81.56
71082;SHT31;58740;50.672;18.690;2022-09-20T06:25:27;11.05;81.36
71082;SHT31;58740;50.672;18.690;2022-09-20T06:28:13;11.07;81.40
71082;SHT31;58740;50.672;18.690;2022-09-20T06:30:48;11.08;81.25
71082;SHT31;58740;50.672;18.690;2022-09-20T06:33:20;11.07;81.23
71082;SHT31;58740;50.672;18.690;2022-09-20T06:38:57;11.08;81.15
71082;SHT31;58740;50.672;18.690;2022-09-20T06:42:01;11.13;81.13
71082;SHT31;58740;50.672;18.690;2022-09-20T06:44:29;11.16;81.12
71082;SHT31;58740;50.672;18.690;2022-09-20T06:46:57;11.18;81.13
71082;SHT31;58740;50.672;18.690;2022-09-20T06:49:25;11.16;81.10
71082;SHT31;58740;50.672;18.690;2022-09-20T06:51:55;11.14;81.19
71082;SHT31;58740;50.672;18.690;2022-09-20T06:54:23;11.13;81.20
71082;SHT31;58740;50.672;18.690;2022-09-20T06:56:53;11.13;81.20
71082;SHT31;58740;50.672;18.690;2022-09-20T06:59:21;11.12;81.07
71082;SHT31;58740;50.672;18.690;2022-09-20T07:01:49;11.11;81.14
71082;SHT31;58740;50.672;18.690;2022-09-20T07:04:16;11.12;81.20
71082;SHT31;58740;50.672;18.690;2022-09-20T07:06:44;11.13;81.20
71082;SHT31;58740;50.672;18.690;2022-09-20T07:09:11;11.14;81.26
71082;SHT31;58740;50.672;18.690;2022-09-20T07:11:39;11.12;81.25
71082;SHT31;58740;50.672;18.690;2022-09-20T07:14:07;11.13;81.21
71082;SHT31;58740;50.672;18.690;2022-09-20T07:16:34;11.14;81.20
71082;SHT31;58740;50.672;18.690;2022-09-20T07:19:03;11.14;81.28
71082;SHT31;58740;50.672;18.690;2022-09-20T07:21:32;11.16;81.28
71082;SHT31;58740;50.672;18.690;2022-09-20T07:24:00;11.18;81.14
71082;SHT31;58740;50.672;18.690;2022-09-20T07:26:28;11.16;80.97
71082;SHT31;58740;50.672;18.690;2022-09-20T07:28:58;11.14;81.11
71082;SHT31;58740;50.672;18.690;2022-09-20T07:31:28;11.12;81.02
71082;SHT31;58740;50.672;18.690;2022-09-20T07:33:56;11.11;80.99
71082;SHT31;58740;50.672;18.690;2022-09-20T07:36:24;11.13;81.02
71082;SHT31;58740;50.672;18.690;2022-09-20T07:38:52;11.16;80.80
71082;SHT31;58740;50.672;18.690;2022-09-20T07:41:20;11.15;80.72
71082;SHT31;58740;50.672;18.690;2022-09-20T07:43:49;11.14;80.66
71082;SHT31;58740;50.672;18.690;2022-09-20T07:46:17;11.12;80.76
71082;SHT31;58740;50.672;18.690;2022-09-20T07:48:49;11.12;80.80
71082;SHT31;58740;50.672;18.690;2022-09-20T07:51:17;11.13;80.73
71082;SHT31;58740;50.672;18.690;2022-09-20T07:53:45;11.15;80.73
71082;SHT31;58740;50.672;18.690;2022-09-20T07:59:15;11.22;80.70
71082;SHT31;58740;50.672;18.690;2022-09-20T08:01:43;11.22;80.64
71082;SHT31;58740;50.672;18.690;2022-09-20T08:04:10;11.22;80.57
71082;SHT31;58740;50.672;18.690;2022-09-20T08:06:39;11.22;80.66
71082;SHT31;58740;50.672;18.690;2022-09-20T08:09:10;11.26;80.68
71082;SHT31;58740;50.672;18.690;2022-09-20T08:11:40;11.31;80.61
71082;SHT31;58740;50.672;18.690;2022-09-20T08:14:13;11.36;80.34
71082;SHT31;58740;50.672;18.690;2022-09-20T08:16:45;11.38;80.06
71082;SHT31;58740;50.672;18.690;2022-09-20T08:19:16;11.39;79.83
71082;SHT31;58740;50.672;18.690;2022-09-20T08:21:47;11.39;79.93
71082;SHT31;58740;50.672;18.690;2022-09-20T08:24:18;11.36;79.67
71082;SHT31;58740;50.672;18.690;2022-09-20T08:26:47;11.35;79.93
71082;SHT31;58740;50.672;18.690;2022-09-20T08:29:15;11.37;79.84
71082;SHT31;58740;50.672;18.690;2022-09-20T08:31:42;11.39;79.86
71082;SHT31;58740;50.672;18.690;2022-09-20T08:34:11;11.43;79.82
71082;SHT31;58740;50.672;18.690;2022-09-20T08:36:42;11.46;79.92
71082;SHT31;58740;50.672;18.690;2022-09-20T08:39:18;11.51;79.83
71082;SHT31;58740;50.672;18.690;2022-09-20T08:45:05;11.54;79.77
71082;SHT31;58740;50.672;18.690;2022-09-20T08:48:03;11.59;79.74
71082;SHT31;58740;50.672;18.690;2022-09-20T08:50:40;11.64;79.71
71082;SHT31;58740;50.672;18.690;2022-09-20T08:53:08;11.69;79.63
71082;SHT31;58740;50.672;18.690;2022-09-20T08:55:41;11.74;79.60
71082;SHT31;58740;50.672;18.690;2022-09-20T08:58:10;11.79;79.58
71082;SHT31;58740;50.672;18.690;2022-09-20T09:00:39;11.82;79.32
71082;SHT31;58740;50.672;18.690;2022-09-20T09:03:13;11.84;79.34
71082;SHT31;58740;50.672;18.690;2022-09-20T09:05:44;11.85;79.26
71082;SHT31;58740;50.672;18.690;2022-09-20T09:08:40;11.85;79.17
71082;SHT31;58740;50.672;18.690;2022-09-20T09:11:13;11.90;79.02
71082;SHT31;58740;50.672;18.690;2022-09-20T09:16:25;11.99;78.84
71082;SHT31;58740;50.672;18.690;2022-09-20T09:22:01;12.12;78.79
71082;SHT31;58740;50.672;18.690;2022-09-20T09:24:32;12.15;78.09
71082;SHT31;58740;50.672;18.690;2022-09-20T09:29:50;12.17;77.96
71082;SHT31;58740;50.672;18.690;2022-09-20T09:32:26;12.17;77.83
71082;SHT31;58740;50.672;18.690;2022-09-20T09:38:03;12.26;77.56
71082;SHT31;58740;50.672;18.690;2022-09-20T09:40:31;12.34;77.48
71082;SHT31;58740;50.672;18.690;2022-09-20T09:43:00;12.41;77.31
71082;SHT31;58740;50.672;18.690;2022-09-20T09:45:31;12.44;76.88
71082;SHT31;58740;50.672;18.690;2022-09-20T09:53:54;12.52;76.77
71082;SHT31;58740;50.672;18.690;2022-09-20T09:56:38;12.54;76.45
71082;SHT31;58740;50.672;18.690;2022-09-20T09:59:46;12.59;76.70
71082;SHT31;58740;50.672;18.690;2022-09-20T10:06:17;12.69;75.96
71082;SHT31;58740;50.672;18.690;2022-09-20T10:09:06;12.72;75.90
71082;SHT31;58740;50.672;18.690;2022-09-20T10:17:46;12.69;75.60
71082;SHT31;58740;50.672;18.690;2022-09-20T10:20:56;12.64;75.37
71082;SHT31;58740;50.672;18.690;2022-09-20T10:30:00;12.60;75.63
71082;SHT31;58740;50.672;18.690;2022-09-20T10:38:44;12.70;75.39
71082;SHT31;58740;50.672;18.690;2022-09-20T10:45:22;12.92;74.69
71082;SHT31;58740;50.672;18.690;2022-09-20T10:48:09;12.95;73.76
71082;SHT31;58740;50.672;18.690;2022-09-20T10:51:14;12.97;73.72
71082;SHT31;58740;50.672;18.690;2022-09-20T10:54:23;13.03;73.85
71082;SHT31;58740;50.672;18.690;2022-09-20T10:57:03;13.08;73.40
71082;SHT31;58740;50.672;18.690;2022-09-20T11:00:21;13.13;73.42
71082;SHT31;58740;50.672;18.690;2022-09-20T11:03:20;13.16;73.23
71082;SHT31;58740;50.672;18.690;2022-09-20T11:08:58;13.21;73.53
71082;SHT31;58740;50.672;18.690;2022-09-20T11:11:40;13.28;73.70
71082;SHT31;58740;50.672;18.690;2022-09-20T11:14:48;13.31;73.60
71082;SHT31;58740;50.672;18.690;2022-09-20T11:17:25;13.35;73.34
71082;SHT31;58740;50.672;18.690;2022-09-20T11:20:21;13.34;72.94
71082;SHT31;58740;50.672;18.690;2022-09-20T11:23:08;13.36;72.82
71082;SHT31;58740;50.672;18.690;2022-09-20T11:25:44;13.40;72.78
71082;SHT31;58740;50.672;18.690;2022-09-20T11:28:23;13.41;72.20
71082;SHT31;58740;50.672;18.690;2022-09-20T11:31:23;13.42;71.43
71082;SHT31;58740;50.672;18.690;2022-09-20T11:34:20;13.40;70.68
71082;SHT31;58740;50.672;18.690;2022-09-20T11:36:54;13.42;71.00
71082;SHT31;58740;50.672;18.690;2022-09-20T11:42:23;13.44;70.60
71082;SHT31;58740;50.672;18.690;2022-09-20T11:44:59;13.46;70.76
71082;SHT31;58740;50.672;18.690;2022-09-20T11:47:30;13.52;71.16
71082;SHT31;58740;50.672;18.690;2022-09-20T11:56:14;13.56;70.49
71082;SHT31;58740;50.672;18.690;2022-09-20T12:04:01;13.54;70.42
71082;SHT31;58740;50.672;18.690;2022-09-20T12:10:06;13.56;70.03
71082;SHT31;58740;50.672;18.690;2022-09-20T12:13:14;13.61;70.02
71082;SHT31;58740;50.672;18.690;2022-09-20T12:18:35;13.72;68.63
71082;SHT31;58740;50.672;18.690;2022-09-20T12:21:17;13.77;68.19
71082;SHT31;58740;50.672;18.690;2022-09-20T12:28:55;13.87;68.37
71082;SHT31;58740;50.672;18.690;2022-09-20T12:36:42;13.93;68.10
71082;SHT31;58740;50.672;18.690;2022-09-20T12:39:27;13.93;68.01
71082;SHT31;58740;50.672;18.690;2022-09-20T12:42:00;13.89;67.48
71082;SHT31;58740;50.672;18.690;2022-09-20T12:45:00;13.80;66.92
71082;SHT31;58740;50.672;18.690;2022-09-20T12:47:48;13.76;67.29
71082;SHT31;58740;50.672;18.690;2022-09-20T12:50:21;13.76;66.94
71082;SHT31;58740;50.672;18.690;2022-09-20T12:53:12;13.78;66.73
71082;SHT31;58740;50.672;18.690;2022-09-20T12:55:53;13.82;67.00
71082;SHT31;58740;50.672;18.690;2022-09-20T12:58:49;13.88;67.50
71082;SHT31;58740;50.672;18.690;2022-09-20T13:03:49;14.01;67.38
71082;SHT31;58740;50.672;18.690;2022-09-20T13:11:24;13.92;66.33
71082;SHT31;58740;50.672;18.690;2022-09-20T13:14:18;13.89;66.81
71082;SHT31;58740;50.672;18.690;2022-09-20T13:22:16;13.88;66.98
71082;SHT31;58740;50.672;18.690;2022-09-20T13:24:55;13.88;67.40
71082;SHT31;58740;50.672;18.690;2022-09-20T13:27:28;13.91;67.40
71082;SHT31;58740;50.672;18.690;2022-09-20T13:30:07;13.91;67.26
71082;SHT31;58740;50.672;18.690;2022-09-20T13:33:15;13.89;67.24
71082;SHT31;58740;50.672;18.690;2022-09-20T13:35:52;13.83;66.79
71082;SHT31;58740;50.672;18.690;2022-09-20T13:38:26;13.77;67.45
71082;SHT31;58740;50.672;18.690;2022-09-20T13:41:00;13.74;67.26
71082;SHT31;58740;50.672;18.690;2022-09-20T13:43:42;13.67;67.11
71082;SHT31;58740;50.672;18.690;2022-09-20T13:46:23;13.62;67.70
71082;SHT31;58740;50.672;18.690;2022-09-20T13:49:17;13.61;67.96
71082;SHT31;58740;50.672;18.690;2022-09-20T13:51:50;13.61;68.08
71082;SHT31;58740;50.672;18.690;2022-09-20T13:54:19;13.61;67.67
71082;SHT31;58740;50.672;18.690;2022-09-20T13:57:03;13.63;66.80
71082;SHT31;58740;50.672;18.690;2022-09-20T13:59:42;13.64;67.07
71082;SHT31;58740;50.672;18.690;2022-09-20T14:04:56;13.65;67.25
71082;SHT31;58740;50.672;18.690;2022-09-20T14:07:28;13.63;67.63
71082;SHT31;58740;50.672;18.690;2022-09-20T14:09:57;13.60;68.10
71082;SHT31;58740;50.672;18.690;2022-09-20T14:12:26;13.57;68.31
71082;SHT31;58740;50.672;18.690;2022-09-20T14:14:55;13.52;68.27
71082;SHT31;58740;50.672;18.690;2022-09-20T14:17:24;13.47;68.82
71082;SHT31;58740;50.672;18.690;2022-09-20T14:20:02;13.45;68.88
71082;SHT31;58740;50.672;18.690;2022-09-20T14:22:32;13.43;69.07
71082;SHT31;58740;50.672;18.690;2022-09-20T14:27:40;13.45;69.67
71082;SHT31;58740;50.672;18.690;2022-09-20T14:30:28;13.47;69.83
71082;SHT31;58740;50.672;18.690;2022-09-20T14:32:57;13.47;69.77
71082;SHT31;58740;50.672;18.690;2022-09-20T14:35:25;13.43;69.55
71082;SHT31;58740;50.672;18.690;2022-09-20T14:37:54;13.38;69.42
71082;SHT31;58740;50.672;18.690;2022-09-20T14:40:39;13.33;69.12
71082;SHT31;58740;50.672;18.690;2022-09-20T14:46:04;13.23;69.43
71082;SHT31;58740;50.672;18.690;2022-09-20T14:48:43;13.17;69.26
71082;SHT31;58740;50.672;18.690;2022-09-20T14:53:43;13.06;69.64
71082;SHT31;58740;50.672;18.690;2022-09-20T14:56:14;13.06;69.96
71082;SHT31;58740;50.672;18.690;2022-09-20T15:01:40;13.07;70.11
71082;SHT31;58740;50.672;18.690;2022-09-20T15:04:19;13.06;69.89
71082;SHT31;58740;50.672;18.690;2022-09-20T15:06:50;13.07;69.98
71082;SHT31;58740;50.672;18.690;2022-09-20T15:09:19;13.08;70.23
71082;SHT31;58740;50.672;18.690;2022-09-20T15:12:00;13.09;70.14
71082;SHT31;58740;50.672;18.690;2022-09-20T15:14:30;13.11;70.15
71082;SHT31;58740;50.672;18.690;2022-09-20T15:17:04;13.14;70.18
71082;SHT31;58740;50.672;18.690;2022-09-20T15:19:32;13.18;70.05
71082;SHT31;58740;50.672;18.690;2022-09-20T15:22:00;13.22;70.06
71082;SHT31;58740;50.672;18.690;2022-09-20T15:24:28;13.30;69.99
71082;SHT31;58740;50.672;18.690;2022-09-20T15:26:56;13.36;69.74
71082;SHT31;58740;50.672;18.690;2022-09-20T15:29:24;13.40;69.66
71082;SHT31;58740;50.672;18.690;2022-09-20T15:31:52;13.39;69.32
71082;SHT31;58740;50.672;18.690;2022-09-20T15:34:20;13.38;69.35
71082;SHT31;58740;50.672;18.690;2022-09-20T15:36:47;13.35;69.58
71082;SHT31;58740;50.672;18.690;2022-09-20T15:39:16;13.29;69.74
71082;SHT31;58740;50.672;18.690;2022-09-20T15:41:44;13.25;69.80
71082;SHT31;58740;50.672;18.690;2022-09-20T15:44:14;13.21;70.08
71082;SHT31;58740;50.672;18.690;2022-09-20T15:46:45;13.18;70.26
71082;SHT31;58740;50.672;18.690;2022-09-20T15:49:14;13.16;70.23
71082;SHT31;58740;50.672;18.690;2022-09-20T15:51:42;13.14;70.27
71082;SHT31;58740;50.672;18.690;2022-09-20T15:54:10;13.14;70.42
71082;SHT31;58740;50.672;18.690;2022-09-20T15:56:40;13.13;70.56
71082;SHT31;58740;50.672;18.690;2022-09-20T15:59:09;13.12;70.96
71082;SHT31;58740;50.672;18.690;2022-09-20T16:01:40;13.09;70.95
71082;SHT31;58740;50.672;18.690;2022-09-20T16:04:17;13.08;71.21
71082;SHT31;58740;50.672;18.690;2022-09-20T16:06:47;13.05;71.36
71082;SHT31;58740;50.672;18.690;2022-09-20T16:09:16;13.02;71.36
71082;SHT31;58740;50.672;18.690;2022-09-20T16:11:46;13.01;71.62
71082;SHT31;58740;50.672;18.690;2022-09-20T16:14:15;13.00;71.74
71082;SHT31;58740;50.672;18.690;2022-09-20T16:16:42;12.99;71.67
71082;SHT31;58740;50.672;18.690;2022-09-20T16:19:10;12.99;71.55
71082;SHT31;58740;50.672;18.690;2022-09-20T16:24:27;12.96;71.49
71082;SHT31;58740;50.672;18.690;2022-09-20T16:27:01;12.95;71.63
71082;SHT31;58740;50.672;18.690;2022-09-20T16:29:32;12.93;71.74
71082;SHT31;58740;50.672;18.690;2022-09-20T16:32:00;12.89;71.85
71082;SHT31;58740;50.672;18.690;2022-09-20T16:34:33;12.84;72.11
71082;SHT31;58740;50.672;18.690;2022-09-20T16:37:12;12.79;72.28
71082;SHT31;58740;50.672;18.690;2022-09-20T16:39:43;12.76;72.40
71082;SHT31;58740;50.672;18.690;2022-09-20T16:42:11;12.73;72.58
71082;SHT31;58740;50.672;18.690;2022-09-20T16:44:40;12.72;72.65
71082;SHT31;58740;50.672;18.690;2022-09-20T16:47:10;12.68;72.81
71082;SHT31;58740;50.672;18.690;2022-09-20T16:49:48;12.66;72.92
71082;SHT31;58740;50.672;18.690;2022-09-20T16:52:17;12.63;73.14
71082;SHT31;58740;50.672;18.690;2022-09-20T16:54:45;12.58;73.28
71082;SHT31;58740;50.672;18.690;2022-09-20T16:57:12;12.55;73.44
71082;SHT31;58740;50.672;18.690;2022-09-20T16:59:40;12.52;73.57
71082;SHT31;58740;50.672;18.690;2022-09-20T17:02:11;12.51;73.79
71082;SHT31;58740;50.672;18.690;2022-09-20T17:04:39;12.51;73.84
71082;SHT31;58740;50.672;18.690;2022-09-20T17:07:09;12.51;73.98
71082;SHT31;58740;50.672;18.690;2022-09-20T17:09:37;12.49;74.04
71082;SHT31;58740;50.672;18.690;2022-09-20T17:12:05;12.47;74.17
71082;SHT31;58740;50.672;18.690;2022-09-20T17:14:35;12.43;74.32
71082;SHT31;58740;50.672;18.690;2022-09-20T17:17:03;12.39;74.50
71082;SHT31;58740;50.672;18.690;2022-09-20T17:19:31;12.38;74.53
71082;SHT31;58740;50.672;18.690;2022-09-20T17:21:59;12.37;74.59
71082;SHT31;58740;50.672;18.690;2022-09-20T17:24:27;12.37;74.69
71082;SHT31;58740;50.672;18.690;2022-09-20T17:26:56;12.37;74.75
71082;SHT31;58740;50.672;18.690;2022-09-20T17:29:25;12.37;74.88
71082;SHT31;58740;50.672;18.690;2022-09-20T17:31:53;12.35;75.01
71082;SHT31;58740;50.672;18.690;2022-09-20T17:34:26;12.32;75.13
71082;SHT31;58740;50.672;18.690;2022-09-20T17:36:55;12.29;75.31
71082;SHT31;58740;50.672;18.690;2022-09-20T17:39:23;12.28;75.41
71082;SHT31;58740;50.672;18.690;2022-09-20T17:41:51;12.28;75.51
71082;SHT31;58740;50.672;18.690;2022-09-20T17:44:19;12.27;75.58
71082;SHT31;58740;50.672;18.690;2022-09-20T17:46:47;12.24;75.65
71082;SHT31;58740;50.672;18.690;2022-09-20T17:49:17;12.22;75.82
71082;SHT31;58740;50.672;18.690;2022-09-20T17:51:48;12.19;75.92
71082;SHT31;58740;50.672;18.690;2022-09-20T17:54:18;12.17;76.09
71082;SHT31;58740;50.672;18.690;2022-09-20T17:56:48;12.15;76.10
71082;SHT31;58740;50.672;18.690;2022-09-20T17:59:18;12.13;76.19
71082;SHT31;58740;50.672;18.690;2022-09-20T18:01:47;12.12;76.30
71082;SHT31;58740;50.672;18.690;2022-09-20T18:04:17;12.13;76.39
71082;SHT31;58740;50.672;18.690;2022-09-20T18:06:48;12.13;76.53
71082;SHT31;58740;50.672;18.690;2022-09-20T18:09:19;12.12;76.52
71082;SHT31;58740;50.672;18.690;2022-09-20T18:11:52;12.11;76.67
71082;SHT31;58740;50.672;18.690;2022-09-20T18:14:23;12.08;76.85
71082;SHT31;58740;50.672;18.690;2022-09-20T18:16:55;12.06;76.94
71082;SHT31;58740;50.672;18.690;2022-09-20T18:19:27;12.06;76.98
71082;SHT31;58740;50.672;18.690;2022-09-20T18:22:00;12.07;77.01
71082;SHT31;58740;50.672;18.690;2022-09-20T18:24:29;12.09;77.03
71082;SHT31;58740;50.672;18.690;2022-09-20T18:26:57;12.10;77.03
71082;SHT31;58740;50.672;18.690;2022-09-20T18:29:27;12.10;77.04
71082;SHT31;58740;50.672;18.690;2022-09-20T18:31:55;12.09;77.13
71082;SHT31;58740;50.672;18.690;2022-09-20T18:34:26;12.07;77.16
71082;SHT31;58740;50.672;18.690;2022-09-20T18:36:58;12.05;77.27
71082;SHT31;58740;50.672;18.690;2022-09-20T18:39:30;12.05;77.17
71082;SHT31;58740;50.672;18.690;2022-09-20T18:42:00;12.07;77.18
71082;SHT31;58740;50.672;18.690;2022-09-20T18:44:29;12.09;77.12
71082;SHT31;58740;50.672;18.690;2022-09-20T18:47:03;12.10;77.14
71082;SHT31;58740;50.672;18.690;2022-09-20T18:49:31;12.11;77.20
71082;SHT31;58740;50.672;18.690;2022-09-20T18:52:01;12.09;77.21
71082;SHT31;58740;50.672;18.690;2022-09-20T18:54:29;12.08;77.28
71082;SHT31;58740;50.672;18.690;2022-09-20T18:56:58;12.06;77.36
71082;SHT31;58740;50.672;18.690;2022-09-20T18:59:26;12.07;77.33
71082;SHT31;58740;50.672;18.690;2022-09-20T19:05:08;12.08;77.47
71082;SHT31;58740;50.672;18.690;2022-09-20T19:07:50;12.07;77.50
71082;SHT31;58740;50.672;18.690;2022-09-20T19:10:52;12.03;77.34
71082;SHT31;58740;50.672;18.690;2022-09-20T19:13:47;12.01;77.41
71082;SHT31;58740;50.672;18.690;2022-09-20T19:16:32;11.99;77.33
71082;SHT31;58740;50.672;18.690;2022-09-20T19:22:14;11.99;77.01
71082;SHT31;58740;50.672;18.690;2022-09-20T19:27:56;11.96;75.41
71082;SHT31;58740;50.672;18.690;2022-09-20T19:30:24;11.96;75.42
71082;SHT31;58740;50.672;18.690;2022-09-20T19:32:52;11.96;75.37
71082;SHT31;58740;50.672;18.690;2022-09-20T19:35:24;11.95;75.70
71082;SHT31;58740;50.672;18.690;2022-09-20T19:41:25;11.95;75.03
71082;SHT31;58740;50.672;18.690;2022-09-20T19:47:15;11.88;74.64
71082;SHT31;58740;50.672;18.690;2022-09-20T19:53:13;11.84;74.96
71082;SHT31;58740;50.672;18.690;2022-09-20T19:55:48;11.83;74.91
71082;SHT31;58740;50.672;18.690;2022-09-20T19:58:21;11.81;75.06
71082;SHT31;58740;50.672;18.690;2022-09-20T20:00:49;11.77;74.94
71082;SHT31;58740;50.672;18.690;2022-09-20T20:03:18;11.73;74.84
71082;SHT31;58740;50.672;18.690;2022-09-20T20:12:13;11.73;75.18
71082;SHT31;58740;50.672;18.690;2022-09-20T20:14:55;11.76;74.89
71082;SHT31;58740;50.672;18.690;2022-09-20T20:20:37;11.77;74.73
71082;SHT31;58740;50.672;18.690;2022-09-20T20:26:21;11.78;74.78
71082;SHT31;58740;50.672;18.690;2022-09-20T20:28:51;11.77;75.07
71082;SHT31;58740;50.672;18.690;2022-09-20T20:31:20;11.78;75.17
71082;SHT31;58740;50.672;18.690;2022-09-20T20:33:49;11.77;75.36
71082;SHT31;58740;50.672;18.690;2022-09-20T20:36:16;11.80;75.58
71082;SHT31;58740;50.672;18.690;2022-09-20T20:38:44;11.81;75.83
71082;SHT31;58740;50.672;18.690;2022-09-20T20:41:16;11.82;75.91
71082;SHT31;58740;50.672;18.690;2022-09-20T20:43:50;11.82;76.11
71082;SHT31;58740;50.672;18.690;2022-09-20T20:46:22;11.82;76.24
71082;SHT31;58740;50.672;18.690;2022-09-20T20:48:51;11.82;76.25
71082;SHT31;58740;50.672;18.690;2022-09-20T20:51:20;11.82;76.32
71082;SHT31;58740;50.672;18.690;2022-09-20T20:53:49;11.85;76.37
71082;SHT31;58740;50.672;18.690;2022-09-20T20:56:20;11.88;76.46
71082;SHT31;58740;50.672;18.690;2022-09-20T20:58:55;11.90;76.45
71082;SHT31;58740;50.672;18.690;2022-09-20T21:01:37;11.90;76.48
71082;SHT31;58740;50.672;18.690;2022-09-20T21:04:12;11.90;76.45
71082;SHT31;58740;50.672;18.690;2022-09-20T21:06:41;11.89;76.54
71082;SHT31;58740;50.672;18.690;2022-09-20T21:09:09;11.89;76.62
71082;SHT31;58740;50.672;18.690;2022-09-20T21:11:38;11.90;76.58
71082;SHT31;58740;50.672;18.690;2022-09-20T21:14:10;11.92;76.57
71082;SHT31;58740;50.672;18.690;2022-09-20T21:16:40;11.91;76.57
71082;SHT31;58740;50.672;18.690;2022-09-20T21:19:11;11.91;76.60
71082;SHT31;58740;50.672;18.690;2022-09-20T21:21:42;11.89;76.71
71082;SHT31;58740;50.672;18.690;2022-09-20T21:24:14;11.89;76.82
71082;SHT31;58740;50.672;18.690;2022-09-20T21:26:45;11.88;76.96
71082;SHT31;58740;50.672;18.690;2022-09-20T21:29:14;11.86;77.00
71082;SHT31;58740;50.672;18.690;2022-09-20T21:31:43;11.85;77.09
71082;SHT31;58740;50.672;18.690;2022-09-20T21:34:13;11.83;77.17
71082;SHT31;58740;50.672;18.690;2022-09-20T21:36:42;11.82;77.36
71082;SHT31;58740;50.672;18.690;2022-09-20T21:39:13;11.82;77.46